EDXW/GWT METAR and TAF weather

Enter ICAO airport designator
Station Type Date Time Source
EDXW METAR 2019/06/18 14:20 UTC NOAA

EDXW 181420Z 32008KT CAVOK 21/17 Q1014


Station Type Date Time Source
EDXW Decoded METAR 2019/06/18 14:20 UTC NOAA

Westerland / Sylt, Germany (EDXW) 54-55N 008-21E 20M
Jun 18, 2019 - 10:20 AM EDT / 2019.06.18 1420 UTC
Wind: from the NW (320 degrees) at 9 MPH (8 KT):0
Visibility: greater than 7 mile(s):0
Temperature: 69 F (21 C)
Dew Point: 62 F (17 C)
Relative Humidity: 77%
Pressure (altimeter): 29.94 in. Hg (1014 hPa)
ob: EDXW 181420Z 32008KT CAVOK 21/17 Q1014
cycle: 14

Station Type Date Time Source
EDXW TAF 2009/07/07 14:00 UTC NOAA

TAF EDXW 071400Z 0715/0719 22015G25KT 9999 SCT020

Example: see airport list